Time;durP1;ratioP1;P1;durP2;ratioP2;P2;SDS_P1;SDS_P2;PMS_P1;PMS_P2;Temp;Humidity;BMP_temperature;BMP_pressure;BME280_temperature;BME280_humidity;BME280_pressure;Samples;Min_cycle;Max_cycle;Signal;HPM_P1;HPM_P2
2021/09/20 00:01:00;;;;;;;5.60;3.30;;;;;;;24.94;40.56;100484.86;111174;1231;61109;-84
2021/09/20 00:03:56;;;;;;;4.60;3.20;;;;;;;24.95;40.43;100489.30;111519;1229;61146;-81
2021/09/20 00:07:03;;;;;;;5.00;3.10;;;;;;;24.95;40.38;100494.52;111469;1231;72613;-87
2021/09/20 00:09:59;;;;;;;4.70;3.10;;;;;;;24.94;40.50;100493.46;111793;1228;74541;-86
2021/09/20 00:13:18;;;;;;;;;;;;;;;;;;;;;
2021/09/20 00:16:25;;;;;;;;;;;;;;;;;;;;;
2021/09/20 00:19:18;;;;;;;;;;;;;;;;;;;;;
2021/09/20 00:22:24;;;;;;;5.70;3.30;;;;;;;24.94;40.28;100481.48;111130;1233;75688;-85
2021/09/20 00:25:42;;;;;;;7.40;3.20;;;;;;;24.93;40.36;100475.73;110768;1237;61068;-83
2021/09/20 00:28:36;;;;;;;4.60;3.30;;;;;;;24.93;40.61;100480.11;110805;1235;60981;-84
2021/09/20 00:31:19;;;;;;;5.30;3.40;;;;;;;24.93;40.46;100485.32;110818;1235;72556;-85
2021/09/20 00:34:23;;;;;;;5.70;3.30;;;;;;;24.93;40.38;100487.65;110852;1232;75539;-79
2021/09/20 00:37:21;;;;;;;;;;;;;;;;;;;;;
2021/09/20 00:40:33;;;;;;;6.00;3.60;;;;;;;24.93;40.49;100484.95;111689;1229;61274;-83
2021/09/20 00:46:31;;;;;;;;;;;;;;;24.90;40.52;100488.81;111113;1235;74576;-86
2021/09/20 00:49:48;;;;;;;4.90;3.10;;;;;;;24.89;40.25;100504.80;111140;1234;61010;-86
2021/09/20 00:52:44;;;;;;;;;;;;;;;;;;;;;
2021/09/20 00:55:45;;;;;;;;;;;;;;;;;;;;;
2021/09/20 00:58:56;;;;;;;;;;;;;;;;;;;;;
2021/09/20 01:01:59;;;;;;;;;;;;;;;;;;;;;
2021/09/20 01:05:16;;;;;;;;;;;;;;;;;;;;;
2021/09/20 01:08:25;;;;;;;5.10;3.60;;;;;;;24.89;40.24;100505.30;110662;1238;73560;-87
2021/09/20 01:11:13;;;;;;;5.00;3.30;;;;;;;24.89;40.43;100505.83;110545;1237;75862;-79
2021/09/20 01:13:59;;;;;;;4.60;3.20;;;;;;;24.90;40.30;100503.61;110620;1237;61030;-81
2021/09/20 01:17:17;;;;;;;;;;;;;;;;;;;;;
2021/09/20 01:20:14;;;;;;;4.60;3.20;;;;;;;24.89;40.11;100508.00;110451;1225;72694;-79
2021/09/20 01:23:12;;;;;;;;;;;;;;;24.90;40.15;100511.89;110626;1237;74389;-84
2021/09/20 01:26:29;;;;;;;;;;;;;;;;;;;;;
2021/09/20 01:29:49;;;;;;;6.40;3.10;;;;;;;24.88;40.13;100511.53;110733;1235;61635;-83
2021/09/20 01:32:38;;;;;;;4.90;3.10;;;;;;;24.88;40.11;100519.43;110820;1235;72470;-84
2021/09/20 01:35:31;;;;;;;6.60;3.00;;;;;;;24.88;40.03;100525.19;110871;1232;76279;-83
2021/09/20 01:39:01;;;;;;;5.80;3.20;;;;;;;24.88;40.12;100523.21;111160;1232;61134;-87
2021/09/20 01:41:52;;;;;;;5.70;3.30;;;;;;;24.88;40.15;100526.98;111227;1233;62498;-87
2021/09/20 01:45:09;;;;;;;;;;;;;;;;;;;;;
2021/09/20 01:48:07;;;;;;;6.10;3.10;;;;;;;24.87;40.02;100527.21;111502;1230;74553;-89
2021/09/20 01:50:54;;;;;;;4.80;2.70;;;;;;;24.88;40.05;100524.34;111553;1230;61066;-84
2021/09/20 01:54:18;;;;;;;4.10;2.80;;;;;;;24.88;40.17;100525.73;111632;1228;61543;-85
2021/09/20 01:57:35;;;;;;;;;;;;;;;;;;;;;
2021/09/20 02:01:26;;;;;;;4.40;3.10;;;;;;;24.87;39.84;100528.15;112114;1226;74336;-86
2021/09/20 02:04:30;;;;;;;;;;;;;;;24.86;40.12;100529.14;111465;1230;60984;-88
2021/09/20 02:07:37;;;;;;;5.40;2.70;;;;;;;24.84;40.15;100524.45;112347;1223;61475;-85
2021/09/20 02:10:26;;;;;;;5.00;2.80;;;;;;;24.85;39.90;100527.23;112491;1221;73438;-84
2021/09/20 02:13:43;;;;;;;;;;;;;;;;;;;;;
2021/09/20 02:16:53;;;;;;;4.80;2.50;;;;;;;24.86;40.03;100525.76;112511;1221;61175;-85
2021/09/20 02:19:39;;;;;;;4.00;2.50;;;;;;;24.85;39.78;100524.54;112726;1221;62190;-85
2021/09/20 02:22:39;;;;;;;4.40;2.80;;;;;;;24.85;39.95;100525.98;112909;1218;72345;-85
2021/09/20 02:25:45;;;;;;;;;;;;;;;24.85;40.02;100526.89;112511;1223;73401;-88
2021/09/20 02:28:38;;;;;;;6.40;2.90;;;;;;;24.83;40.10;100522.42;112494;1223;61209;-86
2021/09/20 02:31:40;;;;;;;;;;;;;;;;;;;;;
2021/09/20 02:34:17;;;;;;;5.20;2.90;;;;;;;24.83;40.00;100510.89;112015;1225;72480;-85
2021/09/20 02:37:44;;;;;;;3.80;2.40;;;;;;;24.84;40.14;100509.79;111949;1225;73248;-85
2021/09/20 02:40:45;;;;;;;;;;;;;;;;;;;;;
2021/09/20 02:43:53;;;;;;;;;;;;;;;;;;;;;
2021/09/20 02:46:49;;;;;;;3.40;2.20;;;;;;;24.83;40.09;100514.00;112074;1225;72800;-85
2021/09/20 02:49:58;;;;;;;4.20;2.50;;;;;;;24.83;39.78;100512.41;112267;1223;73323;-82
2021/09/20 02:52:56;;;;;;;4.00;2.50;;;;;;;24.83;39.96;100514.67;112246;1224;61059;-92
2021/09/20 02:56:07;;;;;;;;;;;;;;;;;;;;;
2021/09/20 02:59:13;;;;;;;4.50;2.40;;;;;;;24.83;40.06;100517.23;112077;1227;73377;-85
2021/09/20 03:02:06;;;;;;;3.90;2.30;;;;;;;24.82;40.07;100517.09;111291;1231;73944;-81
2021/09/20 03:05:18;;;;;;;3.70;2.40;;;;;;;24.83;39.93;100521.18;111845;1227;61249;-85
2021/09/20 03:08:15;;;;;;;5.30;2.50;;;;;;;24.82;40.01;100530.45;111879;1228;61244;-85
2021/09/20 03:11:23;;;;;;;;;;;;;;;;;;;;;
2021/09/20 03:14:23;;;;;;;4.20;2.60;;;;;;;24.82;39.88;100532.10;112153;1224;75579;-85
2021/09/20 03:17:22;;;;;;;4.20;2.40;;;;;;;24.81;39.82;100535.90;112342;1222;61395;-85
2021/09/20 03:20:17;;;;;;;3.20;2.30;;;;;;;24.81;39.83;100536.98;112128;1225;61074;-78
2021/09/20 03:23:23;;;;;;;4.00;2.30;;;;;;;24.81;39.87;100537.35;112226;1224;71191;-84
2021/09/20 03:26:14;;;;;;;;;;;;;;;24.81;40.02;100542.79;112274;1225;75585;-87
2021/09/20 03:29:20;;;;;;;;;;;;;;;;;;;;;
2021/09/20 03:32:06;;;;;;;4.90;2.50;;;;;;;24.79;39.86;100549.05;112218;1225;61338;-86
2021/09/20 03:35:33;;;;;;;4.10;2.30;;;;;;;24.79;39.94;100546.55;111654;1226;71244;-84
2021/09/20 03:38:49;;;;;;;;;;;;;;;;;;;;;
2021/09/20 03:41:50;;;;;;;;;;;;;;;;;;;;;
2021/09/20 03:45:09;;;;;;;3.00;2.10;;;;;;;24.78;39.84;100556.89;111866;1227;61024;-87
2021/09/20 03:47:53;;;;;;;3.30;2.10;;;;;;;24.78;39.95;100550.79;111871;1229;73568;-86
2021/09/20 03:50:43;;;;;;;4.10;2.00;;;;;;;24.78;40.01;100554.39;111868;1227;73171;-88
2021/09/20 03:53:22;;;;;;;4.10;2.10;;;;;;;24.78;39.94;100567.12;111902;1227;61080;-84
2021/09/20 03:56:51;;;;;;;4.50;2.20;;;;;;;24.77;39.72;100574.02;111905;1227;61109;-88
2021/09/20 04:00:00;;;;;;;5.90;2.20;;;;;;;24.74;39.91;100568.23;111705;1229;72374;-86
2021/09/20 04:03:10;;;;;;;3.80;2.20;;;;;;;24.37;39.57;100563.75;111173;1232;74632;-90
2021/09/20 04:06:25;;;;;;;6.70;2.40;;;;;;;24.07;39.27;100565.68;111655;1229;61146;-87
2021/09/20 04:10:25;;;;;;;6.50;2.40;;;;;;;24.00;39.22;100555.55;110830;1235;60994;-88
2021/09/20 04:13:18;;;;;;;6.60;2.30;;;;;;;23.88;38.87;100553.31;110580;1237;72923;-83
2021/09/20 04:16:27;;;;;;;25.20;3.50;;;;;;;23.84;38.80;100561.32;110688;1235;74465;-82
2021/09/20 04:19:54;;;;;;;;;;;;;;;;;;;;;
2021/09/20 04:23:13;;;;;;;9.10;2.30;;;;;;;23.84;38.29;100568.15;111041;1235;60978;-83
2021/09/20 04:26:19;;;;;;;4.90;2.10;;;;;;;23.86;38.12;100574.19;110691;1237;73956;-83
2021/09/20 04:29:21;;;;;;;;;;;;;;;;;;;;;
2021/09/20 04:32:55;;;;;;;4.20;2.00;;;;;;;23.71;37.93;100605.73;110715;1236;60963;-83
2021/09/20 04:35:53;;;;;;;4.00;1.90;;;;;;;23.70;37.88;100607.15;110714;1237;61004;-82
2021/09/20 04:39:07;;;;;;;7.30;2.00;;;;;;;23.64;37.78;100611.96;110916;1232;72811;-80
2021/09/20 04:41:49;;;;;;;3.70;2.20;;;;;;;23.52;37.40;100609.52;111331;1231;73364;-81
2021/09/20 04:44:44;;;;;;;4.20;1.80;;;;;;;23.34;37.27;100614.15;111310;1231;61312;-81
2021/09/20 04:47:33;;;;;;;6.20;2.10;;;;;;;23.33;37.71;100611.84;111319;1228;62899;-80
2021/09/20 04:50:04;;;;;;;;;;;;;;;23.37;37.90;100613.10;111849;1225;72588;-80
2021/09/20 04:53:06;;;;;;;3.90;1.90;;;;;;;23.40;38.04;100619.34;112068;1221;73232;-82
2021/09/20 04:55:52;;;;;;;9.20;2.10;;;;;;;23.44;37.98;100629.83;112242;1221;60953;-85
2021/09/20 04:58:19;;;;;;;5.50;1.80;;;;;;;23.20;37.50;100631.46;112145;1219;61100;-81
2021/09/20 05:00:45;;;;;;;2.70;1.70;;;;;;;23.09;37.41;100638.55;112467;1216;61442;-79
2021/09/20 05:03:31;;;;;;;5.20;1.90;;;;;;;23.11;37.51;100642.55;112553;1212;61288;-80
2021/09/20 05:05:56;;;;;;;6.30;1.90;;;;;;;23.10;37.26;100652.15;112688;1212;59829;-79
2021/09/20 05:08:45;;;;;;;8.20;2.10;;;;;;;23.08;37.14;100648.14;112473;1212;61639;-78
2021/09/20 05:11:20;;;;;;;8.80;2.10;;;;;;;23.12;37.15;100644.27;112715;1212;72556;-79
2021/09/20 05:14:25;;;;;;;25.00;2.60;;;;;;;23.16;36.96;100641.29;112597;1211;75012;-79
2021/09/20 05:16:58;;;;;;;15.30;2.40;;;;;;;23.19;36.82;100637.30;112614;1211;60957;-80
2021/09/20 05:20:15;;;;;;;8.10;2.10;;;;;;;23.15;36.74;100635.98;112872;1212;61035;-81
2021/09/20 05:22:41;;;;;;;7.50;1.80;;;;;;;22.97;36.60;100630.23;113924;1212;72494;-80
2021/09/20 05:25:09;;;;;;;4.70;1.80;;;;;;;22.91;36.74;100619.61;113867;1211;74330;-80
2021/09/20 05:28:02;;;;;;;3.30;1.90;;;;;;;22.82;36.67;100616.77;112969;1212;61119;-79
2021/09/20 05:30:31;;;;;;;6.80;1.70;;;;;;;22.59;36.63;100623.40;112535;1212;61413;-80
2021/09/20 05:33:16;;;;;;;;;;;;;;;;;;;;;
2021/09/20 05:36:03;;;;;;;7.00;2.00;;;;;;;22.45;36.55;100641.60;113017;1211;75454;-80
2021/09/20 05:38:30;;;;;;;4.90;1.80;;;;;;;22.24;36.60;100641.10;113267;1212;61516;-80
2021/09/20 05:41:14;;;;;;;;;;;;;;;;;;;;;
2021/09/20 05:44:00;;;;;;;3.70;1.70;;;;;;;22.25;36.85;100644.17;112784;1212;73584;-81
2021/09/20 05:46:29;;;;;;;7.60;1.90;;;;;;;22.34;36.69;100647.30;112792;1212;74612;-80
2021/09/20 05:49:15;;;;;;;5.00;1.80;;;;;;;22.37;36.81;100650.13;112857;1212;60969;-81
2021/09/20 05:51:47;;;;;;;;;;;;;;;22.40;36.68;100644.30;112826;1212;60937;-80
2021/09/20 05:54:44;;;;;;;5.80;1.80;;;;;;;22.42;36.67;100640.77;112394;1216;73977;-81
2021/09/20 05:57:28;;;;;;;10.30;2.20;;;;;;;22.36;36.63;100640.28;112276;1215;74487;-80
2021/09/20 06:00:04;;;;;;;9.00;2.20;;;;;;;22.21;36.69;100638.38;112512;1216;61309;-82
2021/09/20 06:02:39;;;;;;;4.80;2.30;;;;;;;22.27;36.88;100645.13;112361;1216;60220;-81
2021/09/20 06:05:28;;;;;;;5.60;1.90;;;;;;;22.30;36.93;100645.10;112178;1217;61253;-83
2021/09/20 06:07:54;;;;;;;12.40;2.30;;;;;;;22.43;37.04;100644.83;113433;1217;74557;-80
2021/09/20 06:10:38;;;;;;;5.70;2.00;;;;;;;22.55;37.18;100649.90;112626;1215;60279;-79
2021/09/20 06:13:37;;;;;;;;;;;;;;;;;;;;;
2021/09/20 06:16:32;;;;;;;11.00;2.00;;;;;;;22.65;36.94;100640.55;112222;1219;72220;-80
2021/09/20 06:19:35;;;;;;;5.40;2.10;;;;;;;22.72;36.96;100644.06;112277;1221;74375;-82
2021/09/20 06:22:41;;;;;;;;;;;;;;;;;;;;;
2021/09/20 06:25:50;;;;;;;;;;;;;;;;;;;;;
2021/09/20 06:29:02;;;;;;;;;;;;;;;;;;;;;
2021/09/20 06:31:48;;;;;;;8.40;1.90;;;;;;;22.49;36.87;100621.05;112245;1218;76375;-80
2021/09/20 06:34:36;;;;;;;8.20;2.00;;;;;;;22.49;36.69;100617.07;112589;1218;61045;-80
2021/09/20 06:37:22;;;;;;;4.90;1.70;;;;;;;22.48;36.70;100616.28;113401;1218;59363;-80
2021/09/20 06:40:01;;;;;;;4.00;2.10;;;;;;;22.54;36.76;100615.05;112968;1218;60966;-80
2021/09/20 06:43:06;;;;;;;;;;;;;;;;;;;;;
2021/09/20 06:46:20;;;;;;;5.50;2.00;;;;;;;22.53;36.62;100625.13;112666;1217;59881;-82
2021/09/20 06:48:55;;;;;;;7.70;1.90;;;;;;;22.58;36.56;100631.75;112947;1218;60044;-81
2021/09/20 06:51:24;;;;;;;6.10;2.00;;;;;;;22.64;36.64;100631.48;112525;1218;73585;-81
2021/09/20 06:53:54;;;;;;;6.70;2.20;;;;;;;22.68;36.57;100633.80;112754;1215;74460;-80
2021/09/20 06:56:19;;;;;;;10.20;2.40;;;;;;;22.60;36.52;100629.94;112654;1214;59275;-80
2021/09/20 06:59:10;;;;;;;8.90;2.20;;;;;;;22.62;36.52;100630.38;112297;1216;61016;-82
2021/09/20 07:01:45;;;;;;;6.80;2.30;;;;;;;22.63;36.55;100629.17;112356;1215;73514;-79
2021/09/20 07:04:22;;;;;;;4.90;2.50;;;;;;;22.59;36.46;100629.18;112630;1211;76948;-80
2021/09/20 07:06:47;;;;;;;10.80;2.40;;;;;;;22.54;36.69;100629.73;113892;1211;60236;-80
2021/09/20 07:09:16;;;;;;;9.40;2.30;;;;;;;22.59;36.64;100625.25;113621;1206;60889;-80
2021/09/20 07:11:51;;;;;;;6.00;2.40;;;;;;;22.63;36.82;100626.86;113085;1208;72293;-78
2021/09/20 07:14:16;;;;;;;11.20;2.30;;;;;;;22.74;36.86;100641.77;113147;1206;75392;-78
2021/09/20 07:16:45;;;;;;;8.90;2.20;;;;;;;22.83;36.96;100646.23;113034;1206;60880;-78
2021/09/20 07:19:14;;;;;;;8.60;2.10;;;;;;;22.92;36.76;100646.58;112972;1206;61113;-79
2021/09/20 07:22:18;;;;;;;7.70;2.40;;;;;;;23.00;36.73;100645.23;112961;1206;71035;-79
2021/09/20 07:25:24;;;;;;;7.00;2.60;;;;;;;23.06;36.70;100645.61;113178;1208;74133;-83
2021/09/20 07:28:16;;;;;;;5.50;2.40;;;;;;;23.13;36.61;100633.26;113131;1211;61403;-81
2021/09/20 07:30:44;;;;;;;4.90;2.20;;;;;;;23.18;36.57;100623.72;113071;1211;61673;-81
2021/09/20 07:33:21;;;;;;;7.40;2.50;;;;;;;23.23;36.50;100629.20;113033;1212;72546;-81
2021/09/20 07:35:56;;;;;;;9.30;2.60;;;;;;;23.29;36.42;100633.41;113039;1211;75426;-83
2021/09/20 07:38:31;;;;;;;7.90;2.40;;;;;;;23.32;36.43;100640.14;112882;1212;59891;-79
2021/09/20 07:41:08;;;;;;;;;;;;;;;;;;;;;
2021/09/20 07:43:35;;;;;;;8.40;2.20;;;;;;;23.38;36.31;100642.51;113377;1211;72252;-80
2021/09/20 07:46:31;;;;;;;5.50;2.10;;;;;;;23.40;36.29;100639.66;112757;1212;75699;-80
2021/09/20 07:48:56;;;;;;;5.40;2.20;;;;;;;23.40;36.21;100645.39;112701;1211;61016;-81
2021/09/20 07:51:30;;;;;;;6.40;2.40;;;;;;;23.42;36.31;100646.80;112596;1211;61074;-80
2021/09/20 07:53:59;;;;;;;12.60;3.00;;;;;;;23.39;36.19;100644.55;112602;1211;61118;-79
2021/09/20 07:56:28;;;;;;;7.90;2.40;;;;;;;23.28;36.11;100644.21;112570;1211;74421;-80
2021/09/20 07:58:53;;;;;;;12.00;2.90;;;;;;;23.17;36.18;100647.63;113903;1210;61129;-82
2021/09/20 08:01:19;;;;;;;15.30;3.00;;;;;;;23.12;36.25;100642.32;113822;1211;59529;-81
2021/09/20 08:03:45;;;;;;;12.70;2.90;;;;;;;23.06;36.30;100631.80;113923;1210;58892;-81
2021/09/20 08:06:12;;;;;;;9.80;2.60;;;;;;;23.02;36.58;100627.35;114231;1206;59762;-81
2021/09/20 08:08:38;;;;;;;10.20;2.70;;;;;;;22.98;36.52;100628.14;114138;1206;59191;-81
2021/09/20 08:11:03;;;;;;;7.80;2.60;;;;;;;22.94;36.64;100623.82;114083;1206;59527;-81
2021/09/20 08:13:33;;;;;;;5.40;2.20;;;;;;;22.97;36.82;100614.27;113634;1206;60945;-79
2021/09/20 08:16:06;;;;;;;12.00;3.20;;;;;;;23.02;36.78;100601.98;113218;1208;75444;-80
2021/09/20 08:18:45;;;;;;;8.90;2.80;;;;;;;22.98;36.69;100595.55;113077;1208;61361;-81
2021/09/20 08:21:43;;;;;;;5.40;2.30;;;;;;;22.81;36.63;100587.05;113107;1206;61002;-84
2021/09/20 08:24:40;;;;;;;6.10;2.50;;;;;;;22.76;36.63;100590.89;112833;1211;71157;-84
2021/09/20 08:27:26;;;;;;;9.50;2.40;;;;;;;22.75;36.76;100587.19;112891;1209;74455;-80
2021/09/20 08:29:55;;;;;;;6.60;2.70;;;;;;;22.82;36.83;100586.21;112860;1211;60943;-79
2021/09/20 08:32:30;;;;;;;7.10;2.30;;;;;;;22.91;36.83;100584.76;114088;1211;59161;-79
2021/09/20 08:34:55;;;;;;;11.20;2.50;;;;;;;23.00;36.79;100583.35;113998;1209;59085;-79
2021/09/20 08:37:21;;;;;;;7.20;2.40;;;;;;;23.07;36.94;100582.53;113257;1203;61084;-80
2021/09/20 08:40:04;;;;;;;8.10;2.20;;;;;;;23.15;36.84;100586.27;112814;1211;59529;-79
2021/09/20 08:42:38;;;;;;;7.30;2.70;;;;;;;23.22;36.78;100597.10;112768;1211;61178;-79
2021/09/20 08:45:17;;;;;;;5.30;2.50;;;;;;;23.29;36.78;100610.27;112737;1210;72108;-80
2021/09/20 08:48:11;;;;;;;5.00;2.50;;;;;;;23.30;36.68;100610.71;112909;1212;74523;-80
2021/09/20 08:50:37;;;;;;;6.60;2.70;;;;;;;23.31;36.60;100605.60;113546;1214;60086;-79
2021/09/20 08:53:04;;;;;;;12.40;3.60;;;;;;;23.26;36.53;100602.02;113409;1214;59625;-79
2021/09/20 08:55:30;;;;;;;15.60;3.90;;;;;;;23.13;36.55;100604.70;113485;1215;59399;-79
2021/09/20 08:57:56;;;;;;;18.60;3.80;;;;;;;23.00;36.69;100601.46;113528;1214;59378;-79
2021/09/20 09:00:22;;;;;;;20.30;4.20;;;;;;;22.93;36.81;100600.54;113827;1212;59605;-80
2021/09/20 09:02:48;;;;;;;10.20;3.80;;;;;;;22.80;36.75;100589.13;113799;1212;60015;-79
2021/09/20 09:05:20;;;;;;;10.90;3.80;;;;;;;22.78;36.95;100581.95;113542;1212;59707;-79
2021/09/20 09:07:53;;;;;;;16.00;4.40;;;;;;;22.81;36.97;100583.63;113177;1211;74426;-80
2021/09/20 09:10:21;;;;;;;8.90;4.30;;;;;;;22.82;36.91;100584.42;113951;1211;61544;-79
2021/09/20 09:12:47;;;;;;;7.60;3.70;;;;;;;22.82;36.91;100579.63;114046;1211;60110;-80
2021/09/20 09:15:13;;;;;;;9.30;4.00;;;;;;;22.79;36.96;100576.44;113988;1211;59032;-80
2021/09/20 09:17:41;;;;;;;9.50;4.30;;;;;;;22.83;36.93;100580.39;113945;1211;59035;-80
2021/09/20 09:20:14;;;;;;;8.50;4.10;;;;;;;22.81;36.82;100580.56;113966;1211;61400;-79
2021/09/20 09:22:48;;;;;;;9.30;4.40;;;;;;;22.82;36.88;100576.18;114293;1207;59068;-80
2021/09/20 09:26:16;;;;;;;;;;;;;;;;;;;;;
2021/09/20 09:29:27;;;;;;;15.40;4.30;;;;;;;22.86;36.91;100571.79;112922;1211;75319;-79
2021/09/20 09:32:07;;;;;;;12.40;4.60;;;;;;;22.92;37.05;100567.05;112516;1218;61350;-80
2021/09/20 09:34:35;;;;;;;13.20;4.60;;;;;;;22.98;36.64;100560.55;112596;1218;62520;-80
2021/09/20 09:40:49;;;;;;;12.60;5.20;;;;;;;22.89;36.98;100543.13;112504;1219;74668;-78
2021/09/20 09:43:55;;;;;;;14.80;5.30;;;;;;;22.87;36.89;100534.73;112213;1222;61017;-83
2021/09/20 09:46:31;;;;;;;10.00;4.30;;;;;;;22.85;36.89;100532.87;112045;1221;61573;-79
2021/09/20 09:49:41;;;;;;;11.60;5.00;;;;;;;22.86;37.03;100535.29;111937;1222;74076;-80
2021/09/20 09:52:26;;;;;;;14.50;5.20;;;;;;;22.84;36.87;100538.20;112067;1221;75718;-80
2021/09/20 09:55:02;;;;;;;21.00;5.50;;;;;;;22.90;36.87;100534.61;111563;1222;61019;-80
2021/09/20 09:57:29;;;;;;;17.00;5.70;;;;;;;22.94;37.00;100537.91;112797;1221;60116;-80
2021/09/20 09:59:56;;;;;;;12.80;6.20;;;;;;;22.93;36.97;100539.18;112884;1221;59620;-80
2021/09/20 10:02:26;;;;;;;17.20;5.10;;;;;;;22.92;36.93;100540.36;112863;1221;74405;-80
2021/09/20 10:04:55;;;;;;;9.40;5.50;;;;;;;22.95;37.28;100546.39;112953;1217;60276;-79
2021/09/20 10:07:28;;;;;;;16.40;5.40;;;;;;;23.00;37.14;100547.59;113425;1219;60077;-80
2021/09/20 10:09:55;;;;;;;14.10;5.20;;;;;;;23.04;37.27;100542.93;113604;1216;73496;-80
2021/09/20 10:12:22;;;;;;;13.40;5.40;;;;;;;23.08;37.22;100538.83;113907;1214;74508;-80
2021/09/20 10:14:49;;;;;;;11.60;4.90;;;;;;;23.16;37.29;100538.77;113325;1214;59967;-82
2021/09/20 10:17:45;;;;;;;10.30;4.70;;;;;;;23.23;37.11;100535.80;112754;1211;60953;-80
2021/09/20 10:20:27;;;;;;;12.20;4.40;;;;;;;23.26;37.12;100531.98;112941;1206;72177;-79
2021/09/20 10:23:15;;;;;;;10.10;4.80;;;;;;;23.28;37.03;100531.32;113186;1206;75616;-80
2021/09/20 10:25:53;;;;;;;9.70;4.80;;;;;;;23.29;36.96;100517.21;113079;1208;61050;-80
2021/09/20 10:28:34;;;;;;;;;;;;;;;;;;;;;
2021/09/20 10:31:16;;;;;;;10.70;4.00;;;;;;;23.37;36.85;100520.15;113171;1206;72262;-80
2021/09/20 10:34:38;;;;;;;7.90;4.30;;;;;;;23.36;36.92;100517.85;113182;1206;74825;-80
2021/09/20 10:37:32;;;;;;;9.20;4.10;;;;;;;23.36;36.88;100514.81;113266;1207;60982;-81
2021/09/20 10:40:13;;;;;;;12.00;4.20;;;;;;;23.34;36.85;100505.67;113215;1207;61096;-80
2021/09/20 10:43:02;;;;;;;;;;;;;;;;;;;;;
2021/09/20 10:46:42;;;;;;;7.00;3.90;;;;;;;23.33;36.80;100490.31;113337;1206;75968;-80
2021/09/20 10:49:18;;;;;;;9.90;3.90;;;;;;;23.38;36.84;100479.43;112695;1215;61049;-80
2021/09/20 10:51:45;;;;;;;10.00;3.50;;;;;;;23.40;36.70;100479.97;113470;1215;59356;-79
2021/09/20 10:54:19;;;;;;;21.70;4.40;;;;;;;23.37;36.81;100476.81;113620;1212;73680;-80
2021/09/20 10:56:47;;;;;;;10.50;3.80;;;;;;;23.33;36.81;100469.13;113675;1211;74564;-80
2021/09/20 10:59:14;;;;;;;17.10;3.50;;;;;;;23.30;36.69;100463.42;113733;1212;61258;-80
2021/09/20 11:01:40;;;;;;;9.90;3.60;;;;;;;23.32;36.83;100457.75;113959;1211;59200;-79
2021/09/20 11:04:09;;;;;;;9.70;3.50;;;;;;;23.37;36.82;100442.92;113802;1211;59336;-79
2021/09/20 11:06:37;;;;;;;11.30;3.90;;;;;;;23.42;36.79;100430.95;113874;1211;75348;-79
2021/09/20 11:09:05;;;;;;;8.30;3.40;;;;;;;23.48;36.81;100431.04;113900;1212;59866;-80
2021/09/20 11:11:43;;;;;;;7.50;3.30;;;;;;;23.53;36.71;100425.90;112832;1212;60020;-80
2021/09/20 11:14:11;;;;;;;10.60;3.40;;;;;;;23.58;36.63;100418.64;113967;1212;72448;-79
2021/09/20 11:17:00;;;;;;;7.30;3.30;;;;;;;23.62;36.70;100410.21;114008;1212;66146;-80
2021/09/20 11:19:26;;;;;;;5.90;3.10;;;;;;;23.67;36.68;100403.50;114114;1211;58866;-79
2021/09/20 11:22:10;;;;;;;8.30;3.20;;;;;;;23.71;36.60;100400.96;114091;1211;59309;-79
2021/09/20 11:25:03;;;;;;;10.90;3.10;;;;;;;23.73;36.62;100404.73;113590;1206;73259;-80
2021/09/20 11:27:58;;;;;;;8.80;2.90;;;;;;;23.71;36.44;100398.75;113576;1206;74948;-79
2021/09/20 11:30:48;;;;;;;7.40;3.00;;;;;;;23.72;36.48;100397.42;113251;1206;60993;-82
2021/09/20 11:33:23;;;;;;;13.90;3.20;;;;;;;23.73;36.43;100394.98;113105;1208;61668;-80
2021/09/20 11:35:57;;;;;;;10.20;3.20;;;;;;;23.73;36.34;100397.77;113094;1207;72132;-80
2021/09/20 11:38:55;;;;;;;9.50;2.90;;;;;;;23.72;36.31;100389.73;113281;1207;74738;-80
2021/09/20 11:42:01;;;;;;;;;;;;;;;;;;;;;
2021/09/20 11:44:57;;;;;;;10.70;3.00;;;;;;;23.71;36.17;100386.19;113293;1209;61319;-79
2021/09/20 11:47:27;;;;;;;19.70;2.90;;;;;;;23.72;36.19;100380.93;114382;1208;73639;-78
2021/09/20 11:50:15;;;;;;;13.60;2.70;;;;;;;23.69;36.19;100376.90;114215;1208;75580;-80
2021/09/20 11:52:45;;;;;;;8.60;3.00;;;;;;;23.69;36.20;100376.35;114321;1209;61169;-79
2021/09/20 11:55:21;;;;;;;9.50;2.90;;;;;;;23.69;36.34;100382.48;114213;1209;59110;-79
2021/09/20 11:57:49;;;;;;;11.30;2.80;;;;;;;23.67;36.20;100388.38;114299;1208;72173;-79
2021/09/20 12:00:30;;;;;;;12.90;3.00;;;;;;;23.65;36.22;100389.13;114260;1208;75293;-79
2021/09/20 12:02:57;;;;;;;9.90;3.10;;;;;;;23.59;36.26;100395.05;114241;1209;60045;-79
2021/09/20 12:05:33;;;;;;;8.30;2.80;;;;;;;23.56;36.32;100391.89;114246;1208;60944;-78
2021/09/20 12:08:07;;;;;;;9.20;3.10;;;;;;;23.59;36.46;100396.23;114206;1209;72337;-79
2021/09/20 12:10:35;;;;;;;9.40;2.70;;;;;;;23.64;36.42;100406.46;114314;1208;74903;-79
2021/09/20 12:13:03;;;;;;;10.90;2.90;;;;;;;23.62;36.19;100410.42;114309;1209;60042;-79
2021/09/20 12:15:33;;;;;;;9.60;3.00;;;;;;;23.61;36.44;100408.10;114259;1209;60508;-79
2021/09/20 12:18:19;;;;;;;40.80;3.60;;;;;;;23.64;36.29;100406.98;114168;1207;72740;-79
2021/09/20 12:20:48;;;;;;;23.40;3.20;;;;;;;23.69;36.38;100394.63;114534;1206;74648;-80
2021/09/20 12:23:16;;;;;;;15.10;3.40;;;;;;;23.75;36.40;100400.23;114573;1206;59960;-80
2021/09/20 12:25:43;;;;;;;15.70;3.10;;;;;;;23.80;36.46;100405.21;114435;1207;60079;-80
2021/09/20 12:28:24;;;;;;;15.10;3.10;;;;;;;23.84;36.46;100400.52;113862;1206;64705;-80
2021/09/20 12:31:11;;;;;;;11.80;3.10;;;;;;;23.89;36.52;100400.45;113109;1206;75648;-81
2021/09/20 12:34:10;;;;;;;18.10;3.20;;;;;;;23.92;36.48;100393.88;112997;1208;61643;-82
2021/09/20 12:36:45;;;;;;;13.80;2.80;;;;;;;23.95;36.38;100391.48;114047;1206;60950;-79
2021/09/20 12:39:35;;;;;;;15.60;4.30;;;;;;;23.98;36.47;100381.56;113103;1207;73375;-81
2021/09/20 12:42:11;;;;;;;15.90;5.40;;;;;;;24.00;36.42;100378.52;112763;1211;73698;-79
2021/09/20 12:45:08;;;;;;;15.50;8.70;;;;;;;24.01;36.51;100372.48;112840;1211;60956;-82
2021/09/20 12:47:37;;;;;;;20.80;9.20;;;;;;;24.02;36.51;100368.59;112963;1211;61007;-80
2021/09/20 12:50:48;;;;;;;19.40;11.30;;;;;;;24.03;36.54;100370.82;112896;1210;72527;-79
2021/09/20 12:53:52;;;;;;;15.40;6.90;;;;;;;24.04;36.60;100370.41;113067;1211;74573;-83
2021/09/20 12:57:04;;;;;;;9.50;5.10;;;;;;;24.04;36.58;100366.40;113167;1211;61019;-83
2021/09/20 12:59:54;;;;;;;5.90;3.80;;;;;;;24.04;36.62;100362.60;112904;1216;61639;-83
2021/09/20 13:03:00;;;;;;;7.70;4.20;;;;;;;24.05;36.48;100368.48;112839;1216;73638;-84
2021/09/20 13:06:16;;;;;;;8.80;4.40;;;;;;;24.04;36.66;100363.84;112935;1216;74354;-83
2021/09/20 13:09:42;;;;;;;;;;;;;;;;;;;;;
2021/09/20 13:12:51;;;;;;;;;;;;;;;;;;;;;
2021/09/20 13:15:32;;;;;;;11.10;5.30;;;;;;;24.05;36.82;100351.95;112032;1226;73594;-80
2021/09/20 13:18:12;;;;;;;;;;;;;;;;;;;;;
2021/09/20 13:21:17;;;;;;;11.20;6.50;;;;;;;24.06;36.74;100355.08;111931;1224;61217;-80
2021/09/20 13:23:56;;;;;;;15.10;7.20;;;;;;;24.06;36.90;100346.77;111946;1224;61014;-82
2021/09/20 13:27:20;;;;;;;16.00;7.30;;;;;;;24.07;36.87;100352.17;112102;1224;72268;-86
2021/09/20 13:30:26;;;;;;;14.80;5.10;;;;;;;24.06;37.09;100354.40;111482;1228;74497;-84
2021/09/20 13:33:13;;;;;;;14.70;8.20;;;;;;;24.05;36.94;100355.30;111343;1231;60992;-80
2021/09/20 13:36:04;;;;;;;15.70;9.40;;;;;;;24.06;36.96;100364.98;111224;1232;60971;-84
2021/09/20 13:39:02;;;;;;;16.30;7.10;;;;;;;24.06;37.19;100373.21;111402;1228;73693;-80
2021/09/20 13:42:03;;;;;;;9.60;6.60;;;;;;;24.06;37.18;100376.11;111330;1229;75837;-80
2021/09/20 13:44:51;;;;;;;;;;;;;;;;;;;;;
2021/09/20 13:48:08;;;;;;;6.90;4.70;;;;;;;24.07;37.07;100365.45;112197;1221;60988;-80
2021/09/20 13:51:06;;;;;;;10.90;5.10;;;;;;;24.08;37.02;100372.37;112205;1221;73309;-80
2021/09/20 13:53:41;;;;;;;11.30;4.60;;;;;;;24.08;37.17;100371.45;112226;1222;75325;-80
2021/09/20 13:56:48;;;;;;;6.80;4.20;;;;;;;24.09;37.23;100378.21;111857;1225;61192;-80
2021/09/20 14:00:13;;;;;;;8.90;4.50;;;;;;;24.10;37.05;100385.14;111917;1225;62361;-81
2021/09/20 14:03:08;;;;;;;;;;;;;;;;;;;;;